Time;durP1;ratioP1;P1;durP2;ratioP2;P2;SDS_P1;SDS_P2;PMS_P1;PMS_P2;Temp;Humidity;BMP_temperature;BMP_pressure;BME280_temperature;BME280_humidity;BME280_pressure;Samples;Min_cycle;Max_cycle;Signal;HPM_P1;HPM_P2
2023/05/16 00:01:15;;;;;;;;;;;14.20;61.20;;;;;;4997683;28;19936;-75
2023/05/16 00:03:41;;;;;;;;;;;14.20;61.30;;;;;;4999949;28;20012;-76
2023/05/16 00:06:07;;;;;;;;;;;14.10;61.30;;;;;;5021968;28;20021;-76
2023/05/16 00:08:33;;;;;;;;;;;14.10;61.30;;;;;;4997816;28;19948;-76
2023/05/16 00:10:59;;;;;;;;;;;14.00;61.30;;;;;;4996769;28;19927;-76
2023/05/16 00:13:24;;;;;;;;;;;14.00;61.40;;;;;;5014526;28;20020;-76
2023/05/16 00:15:50;;;;;;;;;;;14.00;61.50;;;;;;5009838;28;19947;-76
2023/05/16 00:18:16;;;;;;;;;;;13.90;61.50;;;;;;4986011;28;19921;-75
2023/05/16 00:20:42;;;;;;;;;;;13.90;61.60;;;;;;5015299;28;20402;-76
2023/05/16 00:23:07;;;;;;;;;;;13.80;62.40;;;;;;4980517;28;19925;-75
2023/05/16 00:25:33;;;;;;;;;;;13.80;61.60;;;;;;4983434;28;19927;-76
2023/05/16 00:27:58;;;;;;;;;;;13.80;61.70;;;;;;4982695;28;20030;-75
2023/05/16 00:30:24;;;;;;;;;;;13.70;61.70;;;;;;5014284;28;19921;-75
2023/05/16 00:32:49;;;;;;;;;;;13.70;61.70;;;;;;5015417;28;19925;-76
2023/05/16 00:35:15;;;;;;;;;;;13.60;61.80;;;;;;5014416;28;20298;-76
2023/05/16 00:37:40;;;;;;;;;;;13.60;61.80;;;;;;5015381;28;19921;-76
2023/05/16 00:40:06;;;;;;;;;;;13.60;61.90;;;;;;5010242;28;19947;-75
2023/05/16 00:42:32;;;;;;;;;;;13.50;61.90;;;;;;5017856;28;19927;-76
2023/05/16 00:44:57;;;;;;;;;;;13.50;61.90;;;;;;4997478;28;19921;-76
2023/05/16 00:47:22;;;;;;;;;;;13.50;62.00;;;;;;4995950;28;19925;-75
2023/05/16 00:49:48;;;;;;;;;;;13.50;62.00;;;;;;4997169;28;19991;-76
2023/05/16 00:52:14;;;;;;;;;;;13.40;62.00;;;;;;4998015;28;19925;-75
2023/05/16 00:54:39;;;;;;;;;;;13.40;62.10;;;;;;5014193;28;19925;-76
2023/05/16 00:57:05;;;;;;;;;;;13.40;62.10;;;;;;4982407;28;19931;-76
2023/05/16 00:59:31;;;;;;;;;;;13.30;62.10;;;;;;4995847;28;19953;-76
2023/05/16 01:01:56;;;;;;;;;;;13.30;62.10;;;;;;5028693;28;19921;-75
2023/05/16 01:04:22;;;;;;;;;;;13.30;62.30;;;;;;5000541;28;20374;-75
2023/05/16 01:06:47;;;;;;;;;;;13.30;62.30;;;;;;5017051;28;20048;-76
2023/05/16 01:09:13;;;;;;;;;;;13.30;62.30;;;;;;5016513;28;19924;-76
2023/05/16 01:11:41;;;;;;;;;;;13.30;62.40;;;;;;5030515;28;19944;-76
2023/05/16 01:14:09;;;;;;;;;;;13.20;62.20;;;;;;5034637;28;20449;-76
2023/05/16 01:16:39;;;;;;;;;;;13.20;62.20;;;;;;5034870;28;19920;-75
2023/05/16 01:19:17;;;;;;;;;;;13.20;62.20;;;;;;5019922;28;19928;-75
2023/05/16 01:22:04;;;;;;;;;;;13.20;62.20;;;;;;5050638;28;19991;-76
2023/05/16 01:24:33;;;;;;;;;;;13.10;62.20;;;;;;5024672;28;20012;-76
2023/05/16 01:26:59;;;;;;;;;;;13.10;62.30;;;;;;5003340;28;20079;-77
2023/05/16 01:29:24;;;;;;;;;;;13.20;62.40;;;;;;5037597;28;19921;-76
2023/05/16 01:31:50;;;;;;;;;;;13.10;62.30;;;;;;5036419;28;19940;-76
2023/05/16 01:34:15;;;;;;;;;;;13.20;62.40;;;;;;5040191;28;19924;-76
2023/05/16 01:36:52;;;;;;;;;;;13.10;62.40;;;;;;5037702;28;19925;-75
2023/05/16 01:39:23;;;;;;;;;;;13.10;62.40;;;;;;5038822;28;19921;-74
2023/05/16 01:42:08;;;;;;;;;;;13.10;62.40;;;;;;5039161;28;19950;-75
2023/05/16 01:44:36;;;;;;;;;;;13.10;63.20;;;;;;5054962;28;19957;-75
2023/05/16 01:47:03;;;;;;;;;;;13.10;62.50;;;;;;5020907;28;20279;-76
2023/05/16 01:49:33;;;;;;;;;;;13.10;62.50;;;;;;5037823;28;19928;-75
2023/05/16 01:52:00;;;;;;;;;;;13.00;62.50;;;;;;5006200;28;19927;-76
2023/05/16 01:54:25;;;;;;;;;;;13.00;62.50;;;;;;5020445;28;19936;-76
2023/05/16 01:56:52;;;;;;;;;;;13.10;62.60;;;;;;5021041;28;19963;-76
2023/05/16 01:59:18;;;;;;;;;;;13.10;62.60;;;;;;5036921;28;19917;-76
2023/05/16 02:01:44;;;;;;;;;;;13.00;62.50;;;;;;5016938;28;20558;-75
2023/05/16 02:04:09;;;;;;;;;;;13.00;62.50;;;;;;5001538;28;19925;-77
2023/05/16 02:06:35;;;;;;;;;;;13.00;62.60;;;;;;5017255;28;19928;-76
2023/05/16 02:09:00;;;;;;;;;;;13.00;62.60;;;;;;5029162;28;20451;-76
2023/05/16 02:11:26;;;;;;;;;;;13.00;62.60;;;;;;5019405;28;19928;-77
2023/05/16 02:13:51;;;;;;;;;;;13.00;62.60;;;;;;4998739;28;19940;-76
2023/05/16 02:16:17;;;;;;;;;;;13.00;63.00;;;;;;5019371;28;20443;-75
2023/05/16 02:18:43;;;;;;;;;;;13.00;62.70;;;;;;5019569;28;19917;-76
2023/05/16 02:21:09;;;;;;;;;;;13.00;62.60;;;;;;5016240;28;20304;-74
2023/05/16 02:23:35;;;;;;;;;;;13.00;62.70;;;;;;5000988;28;19925;-76
2023/05/16 02:26:00;;;;;;;;;;;13.00;62.70;;;;;;5017078;28;20387;-77
2023/05/16 02:28:26;;;;;;;;;;;13.00;62.70;;;;;;5002510;28;20450;-75
2023/05/16 02:30:57;;;;;;;;;;;13.00;62.70;;;;;;5015097;28;19921;-76
2023/05/16 02:33:24;;;;;;;;;;;13.00;62.70;;;;;;5001141;28;19921;-76
2023/05/16 02:35:50;;;;;;;;;;;13.00;62.70;;;;;;5014912;28;20676;-77
2023/05/16 02:38:16;;;;;;;;;;;13.00;62.70;;;;;;4999398;28;20011;-76
2023/05/16 02:40:41;;;;;;;;;;;13.00;62.80;;;;;;5014404;28;19925;-76
2023/05/16 02:43:07;;;;;;;;;;;13.00;62.70;;;;;;5019450;28;19924;-76
2023/05/16 02:45:32;;;;;;;;;;;13.00;62.70;;;;;;5017554;28;19924;-76
2023/05/16 02:47:58;;;;;;;;;;;13.00;62.80;;;;;;5016899;28;19952;-76
2023/05/16 02:50:23;;;;;;;;;;;13.00;62.80;;;;;;5001199;28;20036;-76
2023/05/16 02:52:49;;;;;;;;;;;13.00;62.70;;;;;;4973500;28;19921;-76
2023/05/16 02:55:15;;;;;;;;;;;13.00;62.80;;;;;;4988335;28;19929;-76
2023/05/16 02:57:40;;;;;;;;;;;13.00;62.80;;;;;;4998181;28;20435;-76
2023/05/16 03:00:06;;;;;;;;;;;13.00;63.60;;;;;;5017720;28;19921;-77
2023/05/16 03:02:31;;;;;;;;;;;13.00;62.80;;;;;;5021813;28;19928;-78
2023/05/16 03:04:57;;;;;;;;;;;13.00;62.80;;;;;;5035167;28;19956;-77
2023/05/16 03:07:23;;;;;;;;;;;13.00;62.80;;;;;;5019358;28;19921;-77
2023/05/16 03:09:48;;;;;;;;;;;13.00;62.80;;;;;;5036122;28;19928;-76
2023/05/16 03:12:13;;;;;;;;;;;13.00;62.80;;;;;;5035986;28;20431;-76
2023/05/16 03:14:39;;;;;;;;;;;13.10;62.90;;;;;;5036135;28;19928;-76
2023/05/16 03:17:05;;;;;;;;;;;13.10;62.90;;;;;;5037108;28;19924;-76
2023/05/16 03:19:30;;;;;;;;;;;13.10;62.90;;;;;;5019077;28;19921;-76
2023/05/16 03:21:56;;;;;;;;;;;13.10;62.90;;;;;;5018237;28;19974;-76
2023/05/16 03:24:22;;;;;;;;;;;13.10;62.90;;;;;;5018483;28;19921;-76
2023/05/16 03:26:47;;;;;;;;;;;13.10;62.90;;;;;;5019564;28;19924;-76
2023/05/16 03:29:12;;;;;;;;;;;13.10;62.90;;;;;;5001996;28;20849;-76
2023/05/16 03:31:38;;;;;;;;;;;13.10;62.90;;;;;;5017589;28;20526;-76
2023/05/16 03:34:06;;;;;;;;;;;13.10;62.90;;;;;;5034621;28;21486;-77
2023/05/16 03:36:32;;;;;;;;;;;13.10;62.90;;;;;;5017524;28;19987;-77
2023/05/16 03:38:57;;;;;;;;;;;13.10;62.90;;;;;;5017012;28;20019;-76
2023/05/16 03:41:23;;;;;;;;;;;13.10;62.90;;;;;;5018061;28;19921;-76
2023/05/16 03:43:48;;;;;;;;;;;13.10;62.90;;;;;;5035594;28;19972;-76
2023/05/16 03:46:14;;;;;;;;;;;13.10;62.90;;;;;;5016554;28;19920;-77
2023/05/16 03:48:39;;;;;;;;;;;13.10;62.90;;;;;;5049729;28;19955;-77
2023/05/16 03:51:05;;;;;;;;;;;13.10;62.90;;;;;;5034454;28;19990;-77
2023/05/16 03:53:30;;;;;;;;;;;13.10;62.90;;;;;;5018186;28;19927;-77
2023/05/16 03:55:55;;;;;;;;;;;13.10;62.90;;;;;;5018602;28;19972;-77
2023/05/16 03:58:21;;;;;;;;;;;13.10;62.90;;;;;;5015540;28;20006;-78
2023/05/16 04:00:47;;;;;;;;;;;13.10;63.00;;;;;;5033753;28;19927;-77
2023/05/16 04:03:13;;;;;;;;;;;13.10;63.00;;;;;;5030564;28;19925;-76
2023/05/16 04:05:38;;;;;;;;;;;13.10;63.00;;;;;;5037227;28;20342;-77
2023/05/16 04:08:04;;;;;;;;;;;13.10;63.00;;;;;;5035128;28;19921;-77
2023/05/16 04:10:29;;;;;;;;;;;13.10;63.00;;;;;;5033269;28;19979;-77
2023/05/16 04:12:55;;;;;;;;;;;13.10;63.00;;;;;;5034811;28;19920;-77
2023/05/16 04:15:20;;;;;;;;;;;13.10;63.10;;;;;;5017933;28;19955;-77
2023/05/16 04:17:46;;;;;;;;;;;13.10;63.00;;;;;;5032057;28;19959;-77
2023/05/16 04:20:11;;;;;;;;;;;13.10;63.10;;;;;;5017139;28;19943;-77
2023/05/16 04:22:36;;;;;;;;;;;13.10;63.10;;;;;;5014102;28;19963;-77
2023/05/16 04:25:03;;;;;;;;;;;13.10;63.10;;;;;;5034700;28;20387;-77
2023/05/16 04:27:29;;;;;;;;;;;13.10;63.00;;;;;;5022318;28;20009;-76
2023/05/16 04:29:55;;;;;;;;;;;13.00;63.00;;;;;;5031564;28;19925;-76
2023/05/16 04:32:20;;;;;;;;;;;13.10;63.10;;;;;;5033118;28;19932;-77
2023/05/16 04:34:47;;;;;;;;;;;13.00;63.10;;;;;;5033409;28;20570;-75
2023/05/16 04:37:13;;;;;;;;;;;13.00;63.00;;;;;;5031442;28;19921;-76
2023/05/16 04:39:38;;;;;;;;;;;13.10;63.10;;;;;;5030931;28;19993;-77
2023/05/16 04:42:04;;;;;;;;;;;13.10;63.10;;;;;;5040462;28;19925;-76
2023/05/16 04:44:30;;;;;;;;;;;13.00;63.00;;;;;;5017180;28;19932;-77
2023/05/16 04:46:55;;;;;;;;;;;13.00;63.00;;;;;;5014967;28;19921;-76
2023/05/16 04:49:20;;;;;;;;;;;13.00;63.10;;;;;;5016927;28;20503;-77
2023/05/16 04:51:46;;;;;;;;;;;13.10;63.10;;;;;;5037278;28;19928;-77
2023/05/16 04:54:12;;;;;;;;;;;13.10;63.30;;;;;;5034799;28;20311;-76
2023/05/16 04:56:37;;;;;;;;;;;13.00;63.10;;;;;;5022694;28;19916;-76
2023/05/16 04:59:03;;;;;;;;;;;13.00;63.10;;;;;;5007247;28;19921;-78
2023/05/16 05:01:29;;;;;;;;;;;13.00;63.20;;;;;;5020989;28;20674;-75
2023/05/16 05:03:54;;;;;;;;;;;13.00;63.10;;;;;;5006435;28;19929;-74
2023/05/16 05:06:20;;;;;;;;;;;13.00;63.10;;;;;;5002034;28;19925;-78
2023/05/16 05:08:45;;;;;;;;;;;13.00;63.20;;;;;;5002005;28;19921;-77
2023/05/16 05:11:11;;;;;;;;;;;13.00;63.10;;;;;;5017152;28;19928;-77
2023/05/16 05:13:36;;;;;;;;;;;13.00;63.10;;;;;;5014584;28;19927;-78
2023/05/16 05:16:03;;;;;;;;;;;13.10;63.20;;;;;;5018629;28;20403;-77
2023/05/16 05:18:29;;;;;;;;;;;13.10;63.20;;;;;;4985729;28;20067;-76
2023/05/16 05:20:54;;;;;;;;;;;13.10;63.20;;;;;;4997439;28;19925;-78
2023/05/16 05:23:20;;;;;;;;;;;13.00;63.20;;;;;;4992585;28;20601;-77
2023/05/16 05:25:46;;;;;;;;;;;13.00;63.20;;;;;;5018401;28;19952;-77
2023/05/16 05:28:11;;;;;;;;;;;13.10;63.30;;;;;;5012646;28;19921;-77
2023/05/16 05:30:37;;;;;;;;;;;13.00;63.20;;;;;;4989378;28;20511;-77
2023/05/16 05:33:02;;;;;;;;;;;13.00;63.20;;;;;;5014702;28;19921;-76
2023/05/16 05:35:28;;;;;;;;;;;13.10;63.30;;;;;;5000412;28;19933;-77
2023/05/16 05:37:53;;;;;;;;;;;13.00;63.30;;;;;;4999513;28;19921;-77
2023/05/16 05:40:19;;;;;;;;;;;13.00;63.20;;;;;;5004948;28;19932;-77
2023/05/16 05:42:44;;;;;;;;;;;13.00;63.30;;;;;;5009133;28;19921;-79
2023/05/16 05:45:10;;;;;;;;;;;13.00;63.30;;;;;;5011749;28;19979;-77
2023/05/16 05:47:35;;;;;;;;;;;13.00;63.30;;;;;;4998520;28;19921;-78
2023/05/16 05:50:01;;;;;;;;;;;13.00;63.30;;;;;;4998886;28;20710;-77
2023/05/16 05:52:27;;;;;;;;;;;13.00;63.30;;;;;;4996865;28;19960;-76
2023/05/16 05:54:52;;;;;;;;;;;13.00;63.30;;;;;;4996031;28;19925;-77
2023/05/16 05:57:18;;;;;;;;;;;13.10;63.40;;;;;;5017199;28;20330;-76
2023/05/16 05:59:43;;;;;;;;;;;13.10;63.40;;;;;;5018191;28;19928;-77
2023/05/16 06:02:09;;;;;;;;;;;13.00;63.30;;;;;;5000672;28;19927;-76
2023/05/16 06:04:35;;;;;;;;;;;13.10;63.40;;;;;;5052618;28;19964;-76
2023/05/16 06:07:00;;;;;;;;;;;13.10;63.30;;;;;;5019707;28;19920;-76
2023/05/16 06:09:26;;;;;;;;;;;13.10;63.30;;;;;;5007849;28;19921;-76
2023/05/16 06:11:51;;;;;;;;;;;13.10;63.30;;;;;;5037246;28;19921;-77
2023/05/16 06:14:17;;;;;;;;;;;13.10;63.30;;;;;;5018420;28;19928;-77
2023/05/16 06:16:42;;;;;;;;;;;13.20;63.30;;;;;;5039063;28;20016;-78
2023/05/16 06:19:08;;;;;;;;;;;13.20;63.30;;;;;;5036694;28;21828;-76
2023/05/16 06:21:34;;;;;;;;;;;13.20;63.30;;;;;;5022451;28;19928;-77
2023/05/16 06:23:59;;;;;;;;;;;13.20;63.30;;;;;;5019598;28;20326;-76
2023/05/16 06:26:25;;;;;;;;;;;13.20;63.30;;;;;;5037271;28;19928;-76
2023/05/16 06:28:50;;;;;;;;;;;13.20;63.20;;;;;;5036179;28;19929;-78
2023/05/16 06:31:16;;;;;;;;;;;13.30;63.30;;;;;;5038496;28;19944;-77
2023/05/16 06:33:41;;;;;;;;;;;13.30;63.20;;;;;;5019209;28;19948;-76
2023/05/16 06:36:07;;;;;;;;;;;13.30;63.30;;;;;;5037012;28;19921;-76
2023/05/16 06:38:32;;;;;;;;;;;13.30;63.20;;;;;;5035134;28;19913;-77
2023/05/16 06:40:57;;;;;;;;;;;13.40;63.20;;;;;;5037859;28;19971;-76
2023/05/16 06:43:23;;;;;;;;;;;13.40;63.20;;;;;;5027734;28;19932;-77
2023/05/16 06:45:48;;;;;;;;;;;13.40;63.20;;;;;;5050151;28;19920;-77
2023/05/16 06:48:14;;;;;;;;;;;13.40;63.10;;;;;;5037566;28;19920;-75
2023/05/16 06:50:40;;;;;;;;;;;13.50;63.20;;;;;;5052531;28;19920;-75
2023/05/16 06:53:06;;;;;;;;;;;13.50;63.10;;;;;;5040065;28;19924;-75
2023/05/16 06:55:32;;;;;;;;;;;13.50;63.10;;;;;;5027462;28;19979;-76
2023/05/16 06:57:57;;;;;;;;;;;13.60;63.10;;;;;;5016979;28;19929;-76
2023/05/16 07:00:23;;;;;;;;;;;13.60;63.10;;;;;;5037860;28;19924;-77
2023/05/16 07:02:49;;;;;;;;;;;13.60;63.10;;;;;;5019682;28;20457;-77
2023/05/16 07:05:14;;;;;;;;;;;13.70;63.10;;;;;;5018188;28;19925;-77
2023/05/16 07:07:40;;;;;;;;;;;13.70;63.00;;;;;;5037131;28;20283;-77
2023/05/16 07:10:05;;;;;;;;;;;13.80;63.10;;;;;;5035754;28;20429;-76
2023/05/16 07:12:31;;;;;;;;;;;13.80;62.90;;;;;;5036422;28;19967;-77
2023/05/16 07:14:56;;;;;;;;;;;13.90;63.00;;;;;;5033606;28;19936;-78
2023/05/16 07:17:22;;;;;;;;;;;13.90;62.80;;;;;;5036601;28;20387;-77
2023/05/16 07:19:48;;;;;;;;;;;14.00;62.70;;;;;;5012433;28;19925;-78
2023/05/16 07:22:13;;;;;;;;;;;14.00;62.70;;;;;;5021537;28;19921;-77
2023/05/16 07:24:39;;;;;;;;;;;14.10;62.80;;;;;;5015322;28;19920;-76
2023/05/16 07:27:05;;;;;;;;;;;14.10;62.80;;;;;;5018716;28;20019;-77
2023/05/16 07:29:30;;;;;;;;;;;14.20;62.70;;;;;;5014693;28;19928;-76
2023/05/16 07:31:56;;;;;;;;;;;14.20;62.60;;;;;;5017899;28;19999;-77
2023/05/16 07:34:21;;;;;;;;;;;14.30;62.60;;;;;;5034535;28;19925;-76
2023/05/16 07:36:47;;;;;;;;;;;14.40;62.50;;;;;;5050110;28;19920;-75
2023/05/16 07:39:13;;;;;;;;;;;14.50;62.50;;;;;;5033432;28;20626;-77
2023/05/16 07:41:38;;;;;;;;;;;14.60;62.40;;;;;;5031804;28;19921;-76
2023/05/16 07:44:04;;;;;;;;;;;14.70;62.40;;;;;;5032516;28;19990;-76
2023/05/16 07:46:29;;;;;;;;;;;14.80;62.30;;;;;;5033879;28;19925;-77
2023/05/16 07:48:55;;;;;;;;;;;14.80;62.10;;;;;;5049372;28;19952;-78
2023/05/16 07:51:20;;;;;;;;;;;14.90;62.20;;;;;;5033188;28;19939;-77
2023/05/16 07:53:46;;;;;;;;;;;15.00;62.00;;;;;;5017794;28;19921;-77
2023/05/16 07:56:11;;;;;;;;;;;15.00;61.90;;;;;;5033402;28;19920;-77
2023/05/16 07:58:37;;;;;;;;;;;15.10;61.90;;;;;;5049899;28;19928;-77
2023/05/16 08:01:03;;;;;;;;;;;15.20;61.80;;;;;;5033526;28;20702;-76
2023/05/16 08:03:28;;;;;;;;;;;15.30;61.70;;;;;;5049727;28;19931;-77
2023/05/16 08:05:54;;;;;;;;;;;15.40;61.70;;;;;;5034554;28;19931;-77
2023/05/16 08:08:19;;;;;;;;;;;15.40;61.60;;;;;;5016394;28;20035;-76
2023/05/16 08:10:45;;;;;;;;;;;15.50;61.60;;;;;;5035336;28;19928;-77
2023/05/16 08:13:10;;;;;;;;;;;15.50;61.60;;;;;;5033666;28;20546;-76
2023/05/16 08:15:36;;;;;;;;;;;15.60;61.50;;;;;;5033677;28;19936;-75
2023/05/16 08:18:01;;;;;;;;;;;15.70;61.50;;;;;;5033446;28;19921;-76
2023/05/16 08:20:27;;;;;;;;;;;15.80;61.40;;;;;;5047899;28;20383;-77
2023/05/16 08:22:52;;;;;;;;;;;15.90;61.40;;;;;;5050278;28;20055;-78
2023/05/16 08:25:18;;;;;;;;;;;16.00;61.20;;;;;;5032222;28;19963;-77
2023/05/16 08:27:44;;;;;;;;;;;16.10;61.20;;;;;;5048106;28;20003;-76
2023/05/16 08:30:10;;;;;;;;;;;16.30;61.20;;;;;;5037754;28;19925;-78
2023/05/16 08:32:36;;;;;;;;;;;16.40;61.00;;;;;;5016726;28;19920;-77
2023/05/16 08:35:01;;;;;;;;;;;16.40;60.80;;;;;;5033412;28;19955;-78
2023/05/16 08:37:27;;;;;;;;;;;16.50;60.80;;;;;;5040010;28;20567;-77
2023/05/16 08:39:52;;;;;;;;;;;16.50;60.70;;;;;;5039855;28;19920;-77
2023/05/16 08:42:18;;;;;;;;;;;16.60;60.70;;;;;;5021026;28;20012;-77
2023/05/16 08:44:43;;;;;;;;;;;16.60;60.70;;;;;;5041574;28;21419;-77
2023/05/16 08:47:13;;;;;;;;;;;16.70;60.60;;;;;;5038828;28;19970;-76
2023/05/16 08:49:42;;;;;;;;;;;16.80;60.60;;;;;;5022706;28;20393;-77
2023/05/16 08:52:08;;;;;;;;;;;17.00;60.60;;;;;;5055487;28;19928;-77
2023/05/16 08:54:33;;;;;;;;;;;17.20;60.30;;;;;;5055214;28;19925;-76
2023/05/16 08:56:58;;;;;;;;;;;17.30;60.10;;;;;;5055451;28;19923;-76
2023/05/16 08:59:24;;;;;;;;;;;17.40;60.10;;;;;;5039626;28;20514;-77
2023/05/16 09:01:50;;;;;;;;;;;17.50;59.90;;;;;;5021427;28;19920;-76
2023/05/16 09:04:15;;;;;;;;;;;17.60;59.90;;;;;;5057352;28;19924;-77
2023/05/16 09:06:41;;;;;;;;;;;17.80;59.80;;;;;;5055804;28;20443;-77
2023/05/16 09:09:08;;;;;;;;;;;18.00;60.40;;;;;;5039170;28;20785;-77
2023/05/16 09:11:34;;;;;;;;;;;18.10;59.60;;;;;;5056047;28;19925;-76
2023/05/16 09:13:59;;;;;;;;;;;18.20;59.50;;;;;;5037874;28;19978;-77
2023/05/16 09:16:25;;;;;;;;;;;18.20;59.30;;;;;;5041099;28;20007;-76
2023/05/16 09:18:55;;;;;;;;;;;18.20;59.30;;;;;;5037627;28;19921;-76
2023/05/16 09:21:21;;;;;;;;;;;18.30;59.30;;;;;;5054554;28;19959;-77
2023/05/16 09:23:50;;;;;;;;;;;18.20;59.20;;;;;;5042413;28;20007;-77
2023/05/16 09:26:15;;;;;;;;;;;18.20;59.30;;;;;;5055247;28;19925;-77
2023/05/16 09:28:41;;;;;;;;;;;18.20;59.80;;;;;;5056224;28;20303;-77
2023/05/16 09:31:20;;;;;;;;;;;18.10;59.30;;;;;;5054498;28;19928;-77
2023/05/16 09:33:46;;;;;;;;;;;18.10;59.40;;;;;;5040969;28;20036;-77
2023/05/16 09:36:12;;;;;;;;;;;18.10;59.40;;;;;;5039366;28;19924;-77
2023/05/16 09:38:38;;;;;;;;;;;18.10;59.40;;;;;;5019087;28;19921;-77
2023/05/16 09:41:03;;;;;;;;;;;18.10;59.40;;;;;;5040426;28;19939;-77
2023/05/16 09:43:29;;;;;;;;;;;18.10;59.30;;;;;;5040517;28;19940;-77
2023/05/16 09:45:55;;;;;;;;;;;18.10;59.30;;;;;;5038634;28;20817;-78
2023/05/16 09:48:21;;;;;;;;;;;18.20;59.40;;;;;;5017686;28;19920;-76
2023/05/16 09:50:51;;;;;;;;;;;18.20;59.30;;;;;;5034803;28;19917;-77
2023/05/16 09:53:26;;;;;;;;;;;18.20;59.30;;;;;;5018713;28;19964;-76
2023/05/16 09:56:06;;;;;;;;;;;18.20;59.30;;;;;;5035832;28;19928;-77
2023/05/16 09:58:32;;;;;;;;;;;18.30;59.20;;;;;;5049424;28;19948;-76
2023/05/16 10:00:58;;;;;;;;;;;18.30;59.20;;;;;;5034549;28;19928;-77
2023/05/16 10:03:24;;;;;;;;;;;18.40;59.20;;;;;;5026819;28;19928;-77
2023/05/16 10:05:49;;;;;;;;;;;18.40;59.10;;;;;;5047474;28;19923;-77
2023/05/16 10:08:15;;;;;;;;;;;18.30;59.00;;;;;;5019795;28;19925;-77
2023/05/16 10:10:40;;;;;;;;;;;18.30;59.10;;;;;;5016686;28;19925;-77
2023/05/16 10:13:06;;;;;;;;;;;18.30;59.10;;;;;;5049347;28;19925;-77
2023/05/16 10:15:32;;;;;;;;;;;18.20;59.10;;;;;;5002005;28;19924;-77
2023/05/16 10:18:00;;;;;;;;;;;18.20;59.10;;;;;;5019603;28;20437;-78
2023/05/16 10:20:26;;;;;;;;;;;18.10;59.10;;;;;;5051155;28;19921;-77
2023/05/16 10:22:51;;;;;;;;;;;18.20;59.40;;;;;;5051590;28;20419;-76
2023/05/16 10:25:26;;;;;;;;;;;18.20;59.30;;;;;;5052750;28;19921;-77
2023/05/16 10:27:51;;;;;;;;;;;18.20;59.20;;;;;;5036924;28;19920;-76
2023/05/16 10:30:17;;;;;;;;;;;18.10;59.20;;;;;;5018585;28;19928;-75
2023/05/16 10:32:42;;;;;;;;;;;18.10;59.20;;;;;;5020272;28;19987;-77
2023/05/16 10:35:08;;;;;;;;;;;18.10;59.20;;;;;;5053479;28;19999;-77
2023/05/16 10:37:33;;;;;;;;;;;18.20;59.20;;;;;;5050364;28;19921;-76
2023/05/16 10:39:59;;;;;;;;;;;18.20;59.20;;;;;;5015013;28;19925;-77
2023/05/16 10:42:25;;;;;;;;;;;18.30;59.20;;;;;;5052725;28;20012;-76
2023/05/16 10:44:55;;;;;;;;;;;18.20;59.10;;;;;;5037015;28;19920;-77
2023/05/16 10:47:20;;;;;;;;;;;18.30;59.10;;;;;;5052672;28;19925;-77
2023/05/16 10:49:46;;;;;;;;;;;18.30;59.10;;;;;;5049887;28;19924;-76
2023/05/16 10:52:12;;;;;;;;;;;18.20;59.10;;;;;;5050883;28;19944;-77
2023/05/16 10:54:38;;;;;;;;;;;18.20;59.10;;;;;;5036375;28;19928;-76
2023/05/16 10:57:23;;;;;;;;;;;18.20;59.10;;;;;;5037243;28;20295;-76
2023/05/16 10:59:49;;;;;;;;;;;18.10;59.00;;;;;;5033940;28;20108;-77
2023/05/16 11:02:28;;;;;;;;;;;18.10;59.20;;;;;;5016207;28;20578;-77
2023/05/16 11:04:54;;;;;;;;;;;18.10;59.20;;;;;;5036288;28;20035;-75
2023/05/16 11:07:20;;;;;;;;;;;18.20;59.20;;;;;;5050953;28;20438;-77
2023/05/16 11:09:51;;;;;;;;;;;18.20;59.20;;;;;;5017671;28;19924;-77
2023/05/16 11:12:18;;;;;;;;;;;18.20;59.10;;;;;;5016981;28;19921;-76
2023/05/16 11:14:46;;;;;;;;;;;18.20;59.10;;;;;;5036504;28;20407;-79
2023/05/16 11:17:21;;;;;;;;;;;18.20;59.00;;;;;;5033233;28;20413;-76
2023/05/16 11:19:47;;;;;;;;;;;18.10;59.00;;;;;;5017435;28;19925;-77
2023/05/16 11:22:22;;;;;;;;;;;18.20;59.10;;;;;;5038104;28;19921;-77
2023/05/16 11:24:47;;;;;;;;;;;18.10;59.00;;;;;;5035323;28;19963;-77
2023/05/16 11:27:13;;;;;;;;;;;18.10;59.00;;;;;;5036263;28;19921;-77
2023/05/16 11:29:38;;;;;;;;;;;18.10;59.10;;;;;;5051377;28;19921;-77
2023/05/16 11:32:04;;;;;;;;;;;18.10;59.10;;;;;;5031185;28;21243;-76
2023/05/16 11:34:30;;;;;;;;;;;18.10;59.10;;;;;;5017703;28;19978;-77
2023/05/16 11:36:55;;;;;;;;;;;18.10;59.10;;;;;;5018118;28;19920;-77
2023/05/16 11:39:23;;;;;;;;;;;18.10;59.00;;;;;;5035575;28;19924;-77
2023/05/16 11:41:50;;;;;;;;;;;18.10;59.00;;;;;;5034931;28;19932;-76
2023/05/16 11:44:15;;;;;;;;;;;18.10;59.00;;;;;;5050634;28;20007;-78
2023/05/16 11:46:41;;;;;;;;;;;18.10;59.00;;;;;;5035395;28;20011;-76
2023/05/16 11:49:08;;;;;;;;;;;18.10;59.00;;;;;;5035258;28;19932;-77
2023/05/16 11:51:36;;;;;;;;;;;18.10;59.00;;;;;;5034584;28;19927;-77
2023/05/16 11:54:03;;;;;;;;;;;18.00;58.90;;;;;;5050890;28;19931;-77
2023/05/16 11:56:30;;;;;;;;;;;18.00;59.00;;;;;;5017848;28;20383;-75
2023/05/16 11:58:55;;;;;;;;;;;18.00;59.00;;;;;;5033723;28;19932;-76
2023/05/16 12:01:21;;;;;;;;;;;17.90;59.00;;;;;;5051081;28;20006;-76
2023/05/16 12:03:53;;;;;;;;;;;17.90;59.00;;;;;;5035484;28;20352;-75
2023/05/16 12:06:18;;;;;;;;;;;17.90;59.10;;;;;;5034184;28;19980;-77
2023/05/16 12:08:50;;;;;;;;;;;18.00;59.10;;;;;;5033164;28;19963;-76
2023/05/16 12:11:16;;;;;;;;;;;18.00;59.00;;;;;;5016259;28;20934;-76
2023/05/16 12:13:41;;;;;;;;;;;18.00;59.00;;;;;;5049862;28;19921;-76
2023/05/16 12:16:06;;;;;;;;;;;18.00;59.70;;;;;;5014409;28;19933;-77
2023/05/16 12:18:32;;;;;;;;;;;18.00;59.00;;;;;;5019844;28;19936;-75
2023/05/16 12:20:57;;;;;;;;;;;18.00;58.90;;;;;;5047265;28;20396;-77
2023/05/16 12:23:23;;;;;;;;;;;18.00;59.00;;;;;;5017655;28;19935;-76
2023/05/16 12:25:48;;;;;;;;;;;18.10;58.90;;;;;;5050240;28;19974;-78
2023/05/16 12:28:14;;;;;;;;;;;18.10;58.90;;;;;;5031285;28;19953;-76
2023/05/16 12:30:40;;;;;;;;;;;18.10;58.90;;;;;;5016612;28;20384;-77
2023/05/16 12:33:10;;;;;;;;;;;18.10;58.80;;;;;;5048315;28;19924;-78
2023/05/16 12:35:39;;;;;;;;;;;18.10;58.70;;;;;;5031580;28;20536;-77
2023/05/16 12:38:08;;;;;;;;;;;18.10;58.70;;;;;;5032893;28;21069;-76
2023/05/16 12:40:38;;;;;;;;;;;18.20;58.80;;;;;;5047699;28;19959;-77
2023/05/16 12:43:04;;;;;;;;;;;18.20;58.80;;;;;;5036415;28;19917;-77
2023/05/16 12:45:29;;;;;;;;;;;18.30;58.80;;;;;;5034574;28;20611;-76
2023/05/16 12:47:55;;;;;;;;;;;18.40;58.70;;;;;;5048972;28;19921;-77
2023/05/16 12:50:21;;;;;;;;;;;18.60;58.60;;;;;;5014153;28;19917;-77
2023/05/16 12:52:50;;;;;;;;;;;18.70;58.50;;;;;;5015822;28;19917;-75
2023/05/16 12:55:20;;;;;;;;;;;18.80;58.30;;;;;;5035219;28;19920;-77
2023/05/16 12:57:46;;;;;;;;;;;18.90;58.20;;;;;;5015184;28;19971;-77
2023/05/16 13:00:13;;;;;;;;;;;19.00;58.10;;;;;;5033654;28;19920;-76
2023/05/16 13:02:38;;;;;;;;;;;19.10;58.00;;;;;;5049995;28;20521;-76
2023/05/16 13:05:06;;;;;;;;;;;19.10;57.80;;;;;;5016267;28;20035;-77
2023/05/16 13:07:31;;;;;;;;;;;19.10;57.90;;;;;;5016050;28;20032;-77
2023/05/16 13:09:57;;;;;;;;;;;19.10;57.90;;;;;;5031800;28;19920;-77
2023/05/16 13:12:25;;;;;;;;;;;19.30;57.90;;;;;;5011391;28;20334;-76
2023/05/16 13:14:53;;;;;;;;;;;19.30;57.70;;;;;;5041475;28;19943;-77
2023/05/16 13:17:19;;;;;;;;;;;19.40;57.70;;;;;;5016467;28;19925;-78
2023/05/16 13:19:44;;;;;;;;;;;19.40;57.60;;;;;;5015649;28;20296;-76
2023/05/16 13:22:10;;;;;;;;;;;19.50;57.60;;;;;;5035376;28;19925;-78
2023/05/16 13:24:36;;;;;;;;;;;19.60;57.60;;;;;;5052510;28;20285;-77
2023/05/16 13:27:01;;;;;;;;;;;19.80;57.50;;;;;;5038119;28;20524;-77
2023/05/16 13:29:27;;;;;;;;;;;19.90;57.40;;;;;;5039277;28;20012;-76
2023/05/16 13:31:52;;;;;;;;;;;19.90;57.20;;;;;;5051640;28;20387;-77
2023/05/16 13:34:18;;;;;;;;;;;20.00;57.10;;;;;;5037223;28;19920;-77
2023/05/16 13:36:45;;;;;;;;;;;20.00;57.00;;;;;;5037527;28;20562;-76
2023/05/16 13:39:11;;;;;;;;;;;19.90;57.00;;;;;;5035652;28;19925;-77
2023/05/16 13:41:39;;;;;;;;;;;19.90;57.20;;;;;;5050991;28;19956;-75
2023/05/16 13:44:04;;;;;;;;;;;20.00;57.20;;;;;;5036919;28;20016;-76
2023/05/16 13:46:30;;;;;;;;;;;20.10;57.10;;;;;;5054166;28;20013;-77
2023/05/16 13:48:55;;;;;;;;;;;20.10;56.90;;;;;;5036570;28;19990;-76
2023/05/16 13:51:21;;;;;;;;;;;20.20;56.90;;;;;;5020719;28;19951;-76
2023/05/16 13:53:46;;;;;;;;;;;20.30;56.80;;;;;;5050862;28;19956;-78
2023/05/16 13:56:12;;;;;;;;;;;20.30;56.80;;;;;;5038590;28;19932;-77
2023/05/16 13:58:37;;;;;;;;;;;20.30;56.70;;;;;;5035178;28;19948;-77
2023/05/16 14:01:03;;;;;;;;;;;20.30;56.80;;;;;;5015706;28;19927;-78
2023/05/16 14:03:28;;;;;;;;;;;20.30;56.70;;;;;;5018424;28;19983;-76
2023/05/16 14:05:53;;;;;;;;;;;20.30;56.70;;;;;;5034825;28;19932;-76
2023/05/16 14:08:19;;;;;;;;;;;20.30;56.70;;;;;;5038707;28;19920;-76
2023/05/16 14:10:44;;;;;;;;;;;20.40;56.80;;;;;;5018733;28;20311;-77